createdAt,value
2023-02-02T00:00:21.699Z,6.40
2023-02-02T00:02:48.316Z,6.30
2023-02-02T00:05:14.946Z,6.30
2023-02-02T00:07:41.597Z,6.30
2023-02-02T00:10:08.691Z,6.20
2023-02-02T00:12:37.501Z,6.30
2023-02-02T00:15:06.523Z,6.30
2023-02-02T00:17:34.307Z,6.20
2023-02-02T00:20:03.111Z,6.20
2023-02-02T00:22:29.722Z,6.10
2023-02-02T00:24:56.376Z,6.10
2023-02-02T00:27:23.022Z,6.00
2023-02-02T00:29:53.677Z,6.00
2023-02-02T00:32:20.316Z,6.00
2023-02-02T00:34:46.893Z,5.90
2023-02-02T00:37:15.838Z,5.90
2023-02-02T00:39:42.489Z,6.10
2023-02-02T00:42:12.110Z,6.00
2023-02-02T00:44:57.497Z,6.00
2023-02-02T00:47:24.072Z,6.00
2023-02-02T00:49:50.731Z,6.10
2023-02-02T00:52:17.351Z,6.00
2023-02-02T00:54:43.961Z,5.90
2023-02-02T00:57:14.219Z,5.90
2023-02-02T00:59:41.319Z,5.90
2023-02-02T01:02:09.419Z,5.90
2023-02-02T01:04:36.383Z,6.00
2023-02-02T01:07:05.607Z,5.90
2023-02-02T01:09:32.213Z,6.00
2023-02-02T01:11:58.828Z,6.00
2023-02-02T01:14:27.900Z,6.00
2023-02-02T01:16:56.930Z,6.00
2023-02-02T01:19:23.570Z,6.00
2023-02-02T01:21:51.181Z,6.00
2023-02-02T01:24:17.754Z,5.90
2023-02-02T01:26:44.401Z,5.90
2023-02-02T01:29:11.149Z,5.90
2023-02-02T01:31:38.155Z,5.90
2023-02-02T01:34:06.916Z,5.90
2023-02-02T01:36:33.589Z,5.80
2023-02-02T01:39:00.276Z,5.80
2023-02-02T01:41:27.167Z,5.80
2023-02-02T01:43:58.536Z,5.80
2023-02-02T01:46:27.406Z,5.80
2023-02-02T01:48:54.020Z,5.80
2023-02-02T01:51:35.435Z,5.80
2023-02-02T01:54:02.428Z,5.80
2023-02-02T01:56:31.672Z,5.90
2023-02-02T01:58:59.074Z,6.00
2023-02-02T02:01:26.313Z,5.90
2023-02-02T02:03:53.114Z,5.90
2023-02-02T02:06:20.292Z,5.90
2023-02-02T02:08:52.371Z,5.90
2023-02-02T02:11:19.479Z,5.80
2023-02-02T02:14:04.948Z,5.70
2023-02-02T02:16:36.795Z,5.80
2023-02-02T02:19:24.786Z,5.70
2023-02-02T02:22:10.323Z,5.80
2023-02-02T02:25:07.627Z,5.80
2023-02-02T02:27:37.174Z,5.60
2023-02-02T02:30:22.505Z,5.60
2023-02-02T02:32:56.689Z,5.60
2023-02-02T02:35:31.233Z,5.50
2023-02-02T02:38:00.455Z,5.60
2023-02-02T02:40:30.120Z,5.70
2023-02-02T02:43:00.832Z,5.70
2023-02-02T02:45:28.165Z,5.70
2023-02-02T02:47:57.136Z,5.70
2023-02-02T02:50:26.284Z,5.60
2023-02-02T02:52:58.830Z,5.70
2023-02-02T02:55:27.688Z,5.80
2023-02-02T02:58:00.083Z,5.80
2023-02-02T03:00:39.062Z,5.90
2023-02-02T03:03:05.624Z,5.90
2023-02-02T03:05:32.482Z,5.90
2023-02-02T03:08:19.398Z,5.90
2023-02-02T03:10:49.232Z,5.90
2023-02-02T03:13:16.802Z,5.90
2023-02-02T03:15:44.491Z,5.90
2023-02-02T03:18:12.685Z,5.90
2023-02-02T03:20:39.436Z,5.90
2023-02-02T03:23:10.713Z,5.90
2023-02-02T03:25:40.033Z,5.90
2023-02-02T03:28:11.607Z,5.80
2023-02-02T03:30:40.190Z,5.80
2023-02-02T03:33:07.128Z,5.80
2023-02-02T03:35:33.718Z,5.70
2023-02-02T03:38:00.588Z,5.80
2023-02-02T03:40:29.691Z,5.80
2023-02-02T03:42:56.740Z,5.80
2023-02-02T03:45:29.173Z,5.60
2023-02-02T03:47:58.388Z,5.70
2023-02-02T03:50:25.431Z,5.60
2023-02-02T03:52:52.088Z,5.60
2023-02-02T03:55:18.762Z,5.80
2023-02-02T03:57:45.367Z,5.70
2023-02-02T04:00:12.207Z,5.70
2023-02-02T04:02:39.015Z,5.90
2023-02-02T04:05:05.960Z,5.80
2023-02-02T04:07:34.834Z,5.80
2023-02-02T04:10:01.459Z,5.80
2023-02-02T04:12:30.628Z,5.80
2023-02-02T04:14:57.240Z,5.90
2023-02-02T04:17:23.837Z,5.90
2023-02-02T04:19:58.020Z,6.00
2023-02-02T04:22:25.436Z,6.00
2023-02-02T04:24:52.047Z,6.00
2023-02-02T04:27:19.012Z,6.00
2023-02-02T04:29:48.096Z,6.00
2023-02-02T04:32:15.645Z,6.10
2023-02-02T04:34:42.690Z,6.10
2023-02-02T04:37:09.611Z,6.10
2023-02-02T04:39:36.291Z,6.10
2023-02-02T04:42:03.203Z,6.00
2023-02-02T04:44:29.839Z,6.00
2023-02-02T04:46:56.425Z,6.00
2023-02-02T04:49:23.074Z,6.10
2023-02-02T04:51:52.185Z,6.00
2023-02-02T04:54:18.905Z,6.00
2023-02-02T04:56:47.939Z,6.00
2023-02-02T04:59:16.918Z,6.10
2023-02-02T05:01:46.028Z,6.10
2023-02-02T05:04:12.694Z,6.10
2023-02-02T05:06:39.337Z,6.10
2023-02-02T05:09:06.038Z,6.00
2023-02-02T05:11:32.722Z,6.10
2023-02-02T05:13:59.458Z,6.10
2023-02-02T05:16:28.796Z,6.20
2023-02-02T05:18:56.901Z,6.10
2023-02-02T05:21:26.007Z,6.10
2023-02-02T05:23:55.032Z,6.10
2023-02-02T05:26:25.134Z,6.20
2023-02-02T05:28:54.014Z,6.20
2023-02-02T05:31:21.138Z,6.30
2023-02-02T05:33:47.790Z,6.30
2023-02-02T05:36:15.636Z,6.20
2023-02-02T05:38:42.287Z,6.30
2023-02-02T05:41:11.748Z,6.30
2023-02-02T05:43:40.562Z,6.30
2023-02-02T05:46:07.192Z,6.30
2023-02-02T05:48:33.944Z,6.30
2023-02-02T05:51:10.795Z,6.40
2023-02-02T05:53:37.381Z,6.40
2023-02-02T05:56:06.548Z,6.50
2023-02-02T05:58:36.003Z,6.40
2023-02-02T06:01:02.621Z,6.30
2023-02-02T06:03:29.364Z,6.30
2023-02-02T06:05:56.128Z,6.30
2023-02-02T06:08:22.687Z,6.30
2023-02-02T06:10:49.354Z,6.30
2023-02-02T06:13:18.139Z,6.30
2023-02-02T06:15:47.249Z,6.30
2023-02-02T06:18:13.925Z,6.30
2023-02-02T06:20:42.980Z,6.20
2023-02-02T06:23:11.941Z,6.10
2023-02-02T06:25:40.923Z,6.20
2023-02-02T06:28:10.479Z,6.20
2023-02-02T06:30:37.172Z,6.20
2023-02-02T06:33:07.334Z,6.30
2023-02-02T06:35:34.107Z,6.20
2023-02-02T06:38:03.112Z,6.10
2023-02-02T06:40:29.906Z,6.10
2023-02-02T06:42:57.502Z,6.10
2023-02-02T06:45:24.838Z,6.10
2023-02-02T06:47:54.399Z,6.10
2023-02-02T06:50:23.224Z,5.90
2023-02-02T06:52:50.404Z,5.90
2023-02-02T06:55:17.666Z,6.00
2023-02-02T06:57:44.331Z,6.00
2023-02-02T07:00:14.712Z,5.90
2023-02-02T07:02:44.997Z,5.90
2023-02-02T07:05:11.598Z,5.80
2023-02-02T07:07:38.179Z,5.80
2023-02-02T07:10:04.963Z,5.80
2023-02-02T07:12:31.572Z,5.80
2023-02-02T07:14:59.774Z,5.90
2023-02-02T07:17:26.388Z,5.80
2023-02-02T07:19:52.979Z,5.80
2023-02-02T07:22:19.669Z,5.80
2023-02-02T07:24:46.339Z,5.80
2023-02-02T07:27:13.749Z,5.80
2023-02-02T07:29:40.364Z,5.80
2023-02-02T07:32:11.916Z,5.90
2023-02-02T07:34:39.087Z,5.90
2023-02-02T07:37:05.712Z,5.90
2023-02-02T07:39:32.294Z,5.90
2023-02-02T07:41:58.947Z,5.90
2023-02-02T07:44:25.932Z,6.00
2023-02-02T07:46:52.649Z,6.00
2023-02-02T07:49:21.775Z,5.90
2023-02-02T07:51:49.286Z,5.90
2023-02-02T07:54:15.946Z,5.90
2023-02-02T07:56:47.695Z,5.90
2023-02-02T07:59:14.478Z,5.90
2023-02-02T08:01:41.161Z,6.00
2023-02-02T08:04:07.958Z,6.00
2023-02-02T08:06:35.800Z,6.00
2023-02-02T08:09:03.967Z,6.10
2023-02-02T08:11:31.072Z,6.10
2023-02-02T08:13:58.892Z,6.10
2023-02-02T08:16:30.766Z,6.10
2023-02-02T08:18:57.725Z,6.10
2023-02-02T08:21:27.281Z,6.10
2023-02-02T08:23:56.418Z,6.10
2023-02-02T08:26:24.727Z,6.10
2023-02-02T08:28:52.979Z,6.10
2023-02-02T08:31:21.608Z,6.20
2023-02-02T08:33:48.290Z,6.20
2023-02-02T08:36:18.825Z,6.30
2023-02-02T08:38:45.756Z,6.30
2023-02-02T08:41:13.947Z,6.30
2023-02-02T08:43:41.144Z,6.40
2023-02-02T08:46:09.670Z,6.40
2023-02-02T08:48:36.971Z,6.40
2023-02-02T08:51:06.350Z,6.40
2023-02-02T08:53:33.670Z,6.50
2023-02-02T08:56:01.244Z,6.50
2023-02-02T08:58:28.503Z,6.50
2023-02-02T09:01:03.432Z,6.50
2023-02-02T09:03:32.499Z,6.40
2023-02-02T09:06:03.540Z,6.40
2023-02-02T09:08:30.202Z,6.50
2023-02-02T09:10:59.011Z,6.40
2023-02-02T09:13:25.677Z,6.50
2023-02-02T09:15:52.372Z,6.40
2023-02-02T09:18:19.008Z,6.60
2023-02-02T09:20:48.061Z,6.60
2023-02-02T09:23:14.643Z,6.60
2023-02-02T09:25:41.289Z,6.60
2023-02-02T09:28:10.475Z,6.60
2023-02-02T09:30:37.125Z,6.60
2023-02-02T09:33:03.885Z,6.60
2023-02-02T09:35:30.525Z,6.50
2023-02-02T09:37:59.603Z,6.60
2023-02-02T09:40:27.933Z,6.60
2023-02-02T09:42:56.931Z,6.60
2023-02-02T09:45:33.429Z,6.60
2023-02-02T09:48:23.205Z,6.60
2023-02-02T09:50:55.670Z,6.60
2023-02-02T09:53:28.464Z,6.50
2023-02-02T09:56:00.105Z,6.60
2023-02-02T09:58:39.787Z,6.60
2023-02-02T10:01:08.698Z,6.60
2023-02-02T10:03:38.220Z,6.60
2023-02-02T10:06:23.988Z,6.60
2023-02-02T10:08:53.954Z,6.70
2023-02-02T10:11:50.083Z,6.70
2023-02-02T10:14:29.543Z,6.80
2023-02-02T10:16:57.002Z,7.00
2023-02-02T10:19:29.080Z,7.00
2023-02-02T10:22:12.953Z,7.00
2023-02-02T10:24:42.641Z,7.00
2023-02-02T10:27:14.159Z,7.10
2023-02-02T10:29:48.874Z,7.10
2023-02-02T10:32:28.155Z,7.20
2023-02-02T10:35:06.812Z,7.20
2023-02-02T10:37:39.058Z,7.20
2023-02-02T10:40:07.844Z,7.20
2023-02-02T10:42:42.149Z,7.30
2023-02-02T10:45:19.113Z,7.30
2023-02-02T10:47:45.870Z,7.30
2023-02-02T10:50:14.857Z,7.40
2023-02-02T10:52:52.465Z,7.40
2023-02-02T10:55:25.289Z,7.50
2023-02-02T10:57:54.927Z,7.40
2023-02-02T11:00:38.490Z,7.40
2023-02-02T11:03:07.139Z,7.40
2023-02-02T11:05:52.623Z,7.50
2023-02-02T11:08:20.855Z,7.50
2023-02-02T11:10:50.335Z,7.60
2023-02-02T11:13:23.655Z,7.40
2023-02-02T11:15:50.310Z,7.50
2023-02-02T11:18:30.566Z,7.40
2023-02-02T11:20:59.770Z,7.30
2023-02-02T11:23:29.774Z,7.30
2023-02-02T11:26:05.258Z,7.40
2023-02-02T11:28:33.926Z,7.30
2023-02-02T11:31:00.754Z,7.20
2023-02-02T11:33:29.169Z,7.30
2023-02-02T11:35:57.315Z,7.30
2023-02-02T11:38:23.979Z,7.20
2023-02-02T11:41:03.628Z,7.30
2023-02-02T11:43:33.339Z,7.30
2023-02-02T11:46:07.786Z,7.30
2023-02-02T11:48:38.111Z,7.30
2023-02-02T11:51:05.790Z,7.20
2023-02-02T11:53:41.423Z,7.20
2023-02-02T11:56:12.859Z,7.10
2023-02-02T11:58:44.015Z,7.10
2023-02-02T12:01:22.377Z,7.00
2023-02-02T12:03:49.384Z,7.00
2023-02-02T12:06:26.592Z,7.00
2023-02-02T12:08:59.120Z,6.90
2023-02-02T12:11:29.536Z,6.90
2023-02-02T12:14:14.386Z,6.80
2023-02-02T12:17:01.216Z,6.90
2023-02-02T12:19:30.375Z,6.80
2023-02-02T12:22:17.212Z,6.70
2023-02-02T12:24:51.260Z,6.80
2023-02-02T12:27:23.816Z,6.70
2023-02-02T12:29:59.874Z,6.60
2023-02-02T12:32:45.571Z,6.60
2023-02-02T12:35:32.279Z,6.50
2023-02-02T12:38:04.539Z,6.50
2023-02-02T12:40:34.557Z,6.50
2023-02-02T12:43:27.513Z,6.50
2023-02-02T12:45:58.961Z,6.50
2023-02-02T12:48:28.770Z,6.50
2023-02-02T12:51:05.639Z,6.50
2023-02-02T12:53:47.603Z,6.60
2023-02-02T12:56:39.333Z,6.50
2023-02-02T12:59:24.969Z,6.60
2023-02-02T13:01:58.809Z,6.70
2023-02-02T13:04:56.411Z,6.80
2023-02-02T13:07:32.109Z,6.80
2023-02-02T13:10:01.191Z,6.70
2023-02-02T13:12:28.627Z,6.70
2023-02-02T13:15:01.184Z,6.70
2023-02-02T13:17:36.301Z,6.70
2023-02-02T13:20:06.447Z,6.70
2023-02-02T13:22:38.976Z,6.80
2023-02-02T13:25:08.685Z,6.70
2023-02-02T13:27:38.942Z,6.60
2023-02-02T13:30:13.491Z,6.60
2023-02-02T13:32:41.782Z,6.70
2023-02-02T13:35:16.154Z,6.60
2023-02-02T13:37:47.996Z,6.60
2023-02-02T13:40:32.800Z,6.60
2023-02-02T13:43:07.912Z,6.60
2023-02-02T13:45:44.243Z,6.60
2023-02-02T13:48:19.160Z,6.60
2023-02-02T13:50:50.066Z,6.50
2023-02-02T13:53:25.543Z,6.50
2023-02-02T13:55:55.213Z,6.40
2023-02-02T13:58:40.128Z,6.50
2023-02-02T14:01:09.225Z,6.50
2023-02-02T14:03:40.449Z,6.50
2023-02-02T14:06:13.177Z,6.50
2023-02-02T14:08:46.769Z,6.40
2023-02-02T14:11:18.848Z,6.50
2023-02-02T14:14:05.230Z,6.40
2023-02-02T14:16:31.929Z,6.40
2023-02-02T14:19:02.540Z,6.40
2023-02-02T14:21:35.323Z,6.40
2023-02-02T14:24:07.173Z,6.40
2023-02-02T14:26:42.523Z,6.40
2023-02-02T14:29:30.402Z,6.40
2023-02-02T14:31:57.113Z,6.40
2023-02-02T14:34:35.771Z,6.40
2023-02-02T14:37:21.163Z,6.50
2023-02-02T14:39:54.037Z,6.70
2023-02-02T14:42:45.280Z,6.70
2023-02-02T14:45:11.869Z,6.80
2023-02-02T14:47:47.064Z,6.70
2023-02-02T14:50:22.482Z,6.80
2023-02-02T14:52:59.943Z,6.80
2023-02-02T14:55:27.629Z,6.80
2023-02-02T14:57:59.769Z,6.80
2023-02-02T15:00:29.447Z,6.80
2023-02-02T15:02:56.199Z,6.80
2023-02-02T15:05:34.143Z,6.90
2023-02-02T15:08:23.646Z,6.80
2023-02-02T15:10:51.949Z,6.80
2023-02-02T15:13:19.495Z,6.80
2023-02-02T15:15:47.473Z,6.80
2023-02-02T15:18:18.566Z,6.80
2023-02-02T15:20:48.762Z,6.80
2023-02-02T15:23:23.713Z,6.70
2023-02-02T15:25:59.890Z,6.60
2023-02-02T15:28:41.577Z,6.60
2023-02-02T15:31:11.435Z,6.70
2023-02-02T15:33:42.322Z,6.60
2023-02-02T15:36:13.688Z,6.60
2023-02-02T15:38:43.304Z,6.60
2023-02-02T15:41:21.404Z,6.50
2023-02-02T15:43:48.047Z,6.60
2023-02-02T15:46:24.207Z,6.60
2023-02-02T15:49:14.129Z,6.70
2023-02-02T15:51:50.078Z,6.70
2023-02-02T15:54:28.702Z,6.80
2023-02-02T15:56:57.187Z,6.80
2023-02-02T15:59:28.564Z,6.70
2023-02-02T16:01:55.185Z,6.70
2023-02-02T16:04:26.558Z,6.70
2023-02-02T16:06:56.778Z,6.70
2023-02-02T16:09:27.691Z,6.80
2023-02-02T16:11:54.656Z,6.80
2023-02-02T16:14:23.908Z,6.70
2023-02-02T16:16:50.675Z,6.70
2023-02-02T16:19:20.650Z,6.70
2023-02-02T16:21:58.347Z,6.70
2023-02-02T16:24:26.769Z,6.70
2023-02-02T16:26:54.314Z,6.70
2023-02-02T16:29:23.640Z,6.70
2023-02-02T16:31:53.356Z,6.60
2023-02-02T16:34:38.526Z,6.50
2023-02-02T16:37:07.019Z,6.50
2023-02-02T16:39:36.155Z,6.50
2023-02-02T16:42:09.855Z,6.60
2023-02-02T16:44:41.121Z,6.60
2023-02-02T16:47:08.387Z,6.60
2023-02-02T16:49:35.742Z,6.70
2023-02-02T16:52:22.725Z,6.70
2023-02-02T16:54:56.440Z,6.70
2023-02-02T16:57:29.752Z,6.70
2023-02-02T16:59:58.528Z,6.80
2023-02-02T17:02:31.266Z,7.00
2023-02-02T17:05:02.716Z,7.00
2023-02-02T17:07:29.944Z,7.00
2023-02-02T17:10:15.119Z,7.00
2023-02-02T17:12:47.197Z,6.90
2023-02-02T17:15:16.848Z,7.00
2023-02-02T17:17:44.257Z,6.90
2023-02-02T17:20:14.725Z,6.90
2023-02-02T17:22:42.395Z,6.90
2023-02-02T17:25:16.902Z,7.00
2023-02-02T17:27:48.466Z,7.00
2023-02-02T17:30:18.357Z,7.00
2023-02-02T17:32:49.756Z,7.00
2023-02-02T17:35:24.626Z,7.00
2023-02-02T17:37:54.561Z,7.10
2023-02-02T17:40:22.259Z,7.10
2023-02-02T17:42:52.245Z,7.00
2023-02-02T17:45:21.120Z,6.90
2023-02-02T17:47:50.176Z,7.10
2023-02-02T17:50:17.014Z,7.10
2023-02-02T17:52:48.354Z,7.00
2023-02-02T17:55:20.192Z,7.10
2023-02-02T17:57:49.691Z,7.10
2023-02-02T18:00:17.537Z,7.00
2023-02-02T18:02:46.876Z,7.10
2023-02-02T18:05:15.414Z,7.20
2023-02-02T18:07:43.194Z,7.20
2023-02-02T18:10:13.963Z,7.40
2023-02-02T18:12:41.222Z,7.40
2023-02-02T18:15:12.309Z,7.40
2023-02-02T18:17:41.469Z,7.40
2023-02-02T18:20:11.522Z,7.40
2023-02-02T18:22:38.230Z,7.40
2023-02-02T18:25:07.295Z,7.50
2023-02-02T18:27:33.987Z,7.50
2023-02-02T18:30:00.654Z,7.40
2023-02-02T18:32:27.397Z,7.30
2023-02-02T18:34:56.487Z,7.20
2023-02-02T18:37:28.386Z,7.30
2023-02-02T18:39:55.027Z,7.30
2023-02-02T18:42:26.121Z,7.20
2023-02-02T18:44:53.676Z,7.20
2023-02-02T18:47:22.847Z,7.20
2023-02-02T18:49:54.425Z,7.10
2023-02-02T18:52:23.500Z,7.10
2023-02-02T18:54:50.177Z,7.10
2023-02-02T18:57:17.289Z,7.10
2023-02-02T18:59:48.965Z,7.10
2023-02-02T19:02:17.408Z,7.10
2023-02-02T19:05:04.634Z,7.10
2023-02-02T19:07:52.346Z,7.10
2023-02-02T19:10:19.204Z,7.00
2023-02-02T19:13:11.410Z,7.00
2023-02-02T19:15:42.255Z,7.10
2023-02-02T19:18:16.235Z,7.00
2023-02-02T19:20:43.204Z,7.00
2023-02-02T19:23:13.348Z,7.00
2023-02-02T19:25:40.974Z,7.00
2023-02-02T19:28:25.279Z,7.10
2023-02-02T19:30:54.933Z,7.00
2023-02-02T19:33:25.726Z,7.00
2023-02-02T19:35:55.410Z,7.00
2023-02-02T19:38:26.949Z,7.00
2023-02-02T19:40:53.573Z,7.20
2023-02-02T19:43:20.271Z,7.20
2023-02-02T19:45:51.899Z,7.20
2023-02-02T19:48:19.883Z,7.30
2023-02-02T19:50:49.043Z,7.30
2023-02-02T19:53:23.212Z,7.20
2023-02-02T19:55:52.866Z,7.20
2023-02-02T19:58:26.665Z,7.30
2023-02-02T20:00:53.843Z,7.20
2023-02-02T20:03:22.764Z,7.30
2023-02-02T20:05:50.808Z,7.30
2023-02-02T20:08:23.312Z,7.20
2023-02-02T20:10:50.725Z,7.10
2023-02-02T20:13:21.978Z,7.10
2023-02-02T20:15:49.910Z,7.10
2023-02-02T20:18:21.488Z,7.20
2023-02-02T20:20:50.269Z,7.20
2023-02-02T20:23:31.921Z,7.20
2023-02-02T20:26:00.295Z,7.30
2023-02-02T20:28:30.046Z,7.50
2023-02-02T20:30:58.917Z,7.60
2023-02-02T20:33:27.301Z,7.40
2023-02-02T20:35:54.073Z,7.30
2023-02-02T20:38:22.129Z,7.30
2023-02-02T20:40:52.033Z,7.30
2023-02-02T20:43:18.836Z,7.30
2023-02-02T20:45:48.023Z,7.30
2023-02-02T20:48:15.340Z,7.30
2023-02-02T20:50:42.315Z,7.30
2023-02-02T20:53:09.903Z,7.30
2023-02-02T20:55:38.888Z,7.20
2023-02-02T20:58:05.945Z,7.20
2023-02-02T21:00:35.279Z,7.10
2023-02-02T21:03:04.301Z,7.10
2023-02-02T21:05:33.435Z,7.10
2023-02-02T21:08:00.079Z,7.20
2023-02-02T21:10:29.789Z,7.10
2023-02-02T21:12:58.734Z,7.10
2023-02-02T21:15:26.332Z,7.20
2023-02-02T21:17:57.937Z,7.10
2023-02-02T21:20:24.836Z,7.10
2023-02-02T21:22:51.689Z,7.10
2023-02-02T21:25:18.390Z,7.10
2023-02-02T21:27:47.707Z,7.00
2023-02-02T21:30:14.444Z,7.00
2023-02-02T21:32:41.121Z,7.00
2023-02-02T21:35:07.981Z,7.10
2023-02-02T21:37:35.308Z,7.00
2023-02-02T21:40:03.113Z,7.00
2023-02-02T21:42:33.007Z,6.90
2023-02-02T21:45:19.655Z,6.90
2023-02-02T21:47:50.455Z,7.00
2023-02-02T21:50:22.553Z,7.10
2023-02-02T21:52:49.356Z,7.00
2023-02-02T21:55:27.327Z,6.90
2023-02-02T21:57:58.555Z,6.80
2023-02-02T22:00:28.157Z,6.90
2023-02-02T22:02:55.230Z,7.00
2023-02-02T22:05:26.627Z,7.00
2023-02-02T22:07:56.627Z,7.10
2023-02-02T22:10:23.339Z,7.00
2023-02-02T22:12:49.930Z,6.90
2023-02-02T22:15:20.887Z,6.90
2023-02-02T22:17:49.862Z,6.90
2023-02-02T22:20:18.929Z,7.00
2023-02-02T22:22:46.886Z,6.90
2023-02-02T22:25:13.539Z,6.80
2023-02-02T22:27:46.231Z,6.90
2023-02-02T22:30:12.994Z,6.80
2023-02-02T22:32:39.621Z,6.80
2023-02-02T22:35:06.416Z,6.70
2023-02-02T22:37:35.235Z,6.60
2023-02-02T22:40:01.848Z,6.50
2023-02-02T22:42:28.471Z,6.60
2023-02-02T22:44:55.085Z,6.60
2023-02-02T22:47:24.039Z,6.60
2023-02-02T22:49:53.101Z,6.50
2023-02-02T22:52:22.143Z,6.50
2023-02-02T22:54:48.753Z,6.60
2023-02-02T22:57:15.324Z,6.50
2023-02-02T22:59:44.359Z,6.40
2023-02-02T23:02:11.147Z,6.30
2023-02-02T23:04:37.871Z,6.30
2023-02-02T23:07:04.531Z,6.20
2023-02-02T23:09:33.881Z,6.20
2023-02-02T23:12:02.639Z,6.20
2023-02-02T23:14:29.307Z,6.30
2023-02-02T23:16:55.875Z,6.40
2023-02-02T23:19:22.513Z,6.30
2023-02-02T23:21:49.182Z,6.30
2023-02-02T23:24:16.206Z,6.30
2023-02-02T23:26:45.213Z,6.30
2023-02-02T23:29:14.398Z,6.30
2023-02-02T23:31:43.596Z,6.30
2023-02-02T23:34:10.229Z,6.40
2023-02-02T23:36:36.894Z,6.40
2023-02-02T23:39:05.920Z,6.40
2023-02-02T23:41:38.509Z,6.40
2023-02-02T23:44:05.132Z,6.40
2023-02-02T23:46:32.081Z,6.40
2023-02-02T23:49:00.609Z,6.40
2023-02-02T23:51:27.281Z,6.50
2023-02-02T23:53:57.337Z,6.40
2023-02-02T23:56:26.326Z,6.50
2023-02-02T23:58:55.491Z,6.50
